Time;durP1;ratioP1;P1;durP2;ratioP2;P2;SDS_P1;SDS_P2;PMS_P1;PMS_P2;Temp;Humidity;BMP_temperature;BMP_pressure;BME280_temperature;BME280_humidity;BME280_pressure;Samples;Min_cycle;Max_cycle;Signal;HPM_P1;HPM_P2
2023/07/17 00:01:10;;;;;;;6.28;3.42;;;20.10;99.90;;;;;;4159020;28;20029;-60
2023/07/17 00:03:10;;;;;;;3.95;2.40;;;20.10;99.90;;;;;;4159351;28;20095;-60
2023/07/17 00:05:11;;;;;;;6.47;2.47;;;20.10;99.90;;;;;;4157565;28;20120;-61
2023/07/17 00:07:12;;;;;;;5.07;2.63;;;20.10;99.90;;;;;;4149727;28;20041;-60
2023/07/17 00:09:12;;;;;;;6.70;3.08;;;20.10;99.90;;;;;;4157595;28;20117;-60
2023/07/17 00:11:13;;;;;;;6.65;2.83;;;20.10;99.90;;;;;;4155824;28;20042;-60
2023/07/17 00:13:13;;;;;;;4.55;2.85;;;20.00;99.90;;;;;;4154942;28;20385;-60
2023/07/17 00:15:14;;;;;;;6.40;3.15;;;19.90;99.90;;;;;;4157142;28;20029;-60
2023/07/17 00:17:15;;;;;;;6.65;3.20;;;19.90;99.90;;;;;;4159167;28;20059;-60
2023/07/17 00:19:16;;;;;;;9.13;3.05;;;19.80;99.90;;;;;;4160361;28;20044;-60
2023/07/17 00:21:16;;;;;;;5.22;3.20;;;19.60;99.90;;;;;;4158649;28;20071;-60
2023/07/17 00:23:17;;;;;;;6.03;3.20;;;19.50;99.90;;;;;;4159587;28;20025;-60
2023/07/17 00:25:17;;;;;;;3.97;2.58;;;19.40;99.90;;;;;;4158129;28;20484;-60
2023/07/17 00:27:19;;;;;;;5.72;2.70;;;19.30;99.90;;;;;;4158837;28;20515;-60
2023/07/17 00:29:25;;;;;;;5.25;2.90;;;19.30;99.90;;;;;;4156492;28;20037;-59
2023/07/17 00:31:25;;;;;;;4.03;2.20;;;19.20;99.90;;;;;;4158142;28;20124;-60
2023/07/17 00:33:26;;;;;;;5.35;2.88;;;19.00;99.90;;;;;;4159929;28;20045;-59
2023/07/17 00:35:26;;;;;;;4.22;2.35;;;19.10;99.90;;;;;;4158321;28;20465;-60
2023/07/17 00:37:27;;;;;;;4.57;2.22;;;19.00;99.90;;;;;;4158369;28;20033;-60
2023/07/17 00:39:27;;;;;;;4.05;2.30;;;19.00;99.90;;;;;;4156436;28;20044;-60
2023/07/17 00:41:28;;;;;;;4.78;2.65;;;19.00;99.90;;;;;;4159328;28;20120;-60
2023/07/17 00:43:28;;;;;;;4.55;2.67;;;19.00;99.90;;;;;;4168253;28;20102;-59
2023/07/17 00:45:32;;;;;;;6.32;2.22;;;19.00;99.90;;;;;;4173109;28;20750;-59
2023/07/17 00:47:33;;;;;;;5.10;2.88;;;19.00;99.90;;;;;;4175043;28;20029;-59
2023/07/17 00:49:34;;;;;;;4.88;2.25;;;18.90;99.90;;;;;;4159120;28;20068;-63
2023/07/17 00:51:36;;;;;;;3.65;2.50;;;18.90;99.90;;;;;;4163132;28;20447;-62
2023/07/17 00:53:37;;;;;;;5.65;2.40;;;18.90;99.90;;;;;;4158137;28;20029;-60
2023/07/17 00:55:37;;;;;;;4.07;2.47;;;18.90;99.90;;;;;;4158151;28;20072;-60
2023/07/17 00:57:39;;;;;;;3.63;2.38;;;19.00;99.90;;;;;;4168722;28;20087;-60
2023/07/17 00:59:41;;;;;;;4.68;2.55;;;18.90;99.90;;;;;;4170067;28;20083;-60
2023/07/17 01:01:42;;;;;;;4.88;2.25;;;18.90;99.90;;;;;;4170869;28;20033;-60
2023/07/17 01:03:45;;;;;;;4.47;2.22;;;18.90;99.90;;;;;;4155573;28;20124;-59
2023/07/17 01:05:46;;;;;;;4.95;3.08;;;18.80;99.90;;;;;;4153731;28;20040;-59
2023/07/17 01:07:47;;;;;;;5.57;2.53;;;18.70;99.90;;;;;;4157714;28;20489;-59
2023/07/17 01:09:48;;;;;;;4.75;2.42;;;18.70;99.90;;;;;;4176466;28;20064;-60
2023/07/17 01:11:48;;;;;;;7.22;3.10;;;18.70;99.90;;;;;;4175121;28;20041;-59
2023/07/17 01:13:50;;;;;;;5.05;2.60;;;18.70;99.90;;;;;;4168405;28;20081;-59
2023/07/17 01:15:51;;;;;;;4.35;2.40;;;18.60;99.90;;;;;;4168914;28;20025;-59
2023/07/17 01:17:51;;;;;;;5.93;2.80;;;18.50;99.90;;;;;;4173939;28;20515;-59
2023/07/17 01:19:52;;;;;;;7.85;3.20;;;18.50;99.90;;;;;;4170019;28;20029;-59
2023/07/17 01:21:58;;;;;;;5.25;2.70;;;18.40;99.90;;;;;;4175292;28;20090;-59
2023/07/17 01:23:58;;;;;;;4.75;2.25;;;18.30;99.90;;;;;;4173838;28;20057;-60
2023/07/17 01:25:59;;;;;;;4.65;2.35;;;18.30;99.90;;;;;;4173015;28;20033;-59
2023/07/17 01:28:00;;;;;;;5.07;2.42;;;18.30;99.90;;;;;;4170457;28;20042;-59
2023/07/17 01:30:00;;;;;;;4.78;2.92;;;18.30;99.90;;;;;;4166007;28;20116;-59
2023/07/17 01:32:01;;;;;;;5.53;2.75;;;18.30;99.90;;;;;;4173405;28;20041;-59
2023/07/17 01:34:01;;;;;;;4.82;2.20;;;18.30;99.90;;;;;;4172953;28;20044;-60
2023/07/17 01:36:04;;;;;;;4.22;2.30;;;18.30;99.90;;;;;;4170707;28;20041;-59
2023/07/17 01:38:05;;;;;;;4.50;2.60;;;18.30;99.90;;;;;;4175469;28;20083;-63
2023/07/17 01:40:09;;;;;;;4.53;2.53;;;18.30;99.90;;;;;;4174584;28;20042;-60
2023/07/17 01:42:09;;;;;;;3.10;2.03;;;18.30;99.90;;;;;;4175539;28;20495;-59
2023/07/17 01:44:10;;;;;;;4.63;2.40;;;18.30;99.90;;;;;;4173642;28;20041;-60
2023/07/17 01:46:11;;;;;;;2.67;1.88;;;18.30;99.90;;;;;;4171576;28;20069;-59
2023/07/17 01:48:13;;;;;;;4.40;2.08;;;18.30;99.90;;;;;;4175659;28;20062;-59
2023/07/17 01:50:14;;;;;;;;;;;18.30;99.90;;;;;;4174880;28;20025;-60
2023/07/17 01:52:14;;;;;;;4.53;2.63;;;18.30;99.90;;;;;;4171115;28;19916;-59
2023/07/17 01:54:15;;;;;;;4.55;2.35;;;18.30;99.90;;;;;;4175041;28;20033;-59
2023/07/17 01:56:15;;;;;;;4.22;2.60;;;18.20;99.90;;;;;;4171327;28;20506;-59
2023/07/17 01:58:16;;;;;;;3.35;2.10;;;18.20;99.90;;;;;;4172611;28;20041;-59
2023/07/17 02:00:17;;;;;;;7.70;2.33;;;18.10;99.90;;;;;;4172288;28;20037;-58
2023/07/17 02:02:18;;;;;;;3.10;2.05;;;18.10;99.90;;;;;;4173837;28;20041;-59
2023/07/17 02:04:19;;;;;;;4.13;2.40;;;18.20;99.90;;;;;;4173060;28;20446;-59
2023/07/17 02:06:19;;;;;;;5.97;2.10;;;18.20;99.90;;;;;;4172813;28;20056;-58
2023/07/17 02:08:20;;;;;;;4.97;2.60;;;18.10;99.90;;;;;;4178011;28;20093;-58
2023/07/17 02:10:21;;;;;;;5.85;2.70;;;18.10;99.90;;;;;;4174526;28;20492;-58
2023/07/17 02:12:21;;;;;;;5.82;2.40;;;18.10;99.90;;;;;;4166028;28;20048;-59
2023/07/17 02:14:22;;;;;;;5.68;2.25;;;18.10;99.90;;;;;;4173462;28;20091;-59
2023/07/17 02:16:23;;;;;;;4.43;2.60;;;18.10;99.90;;;;;;4168322;28;20036;-58
2023/07/17 02:18:23;;;;;;;4.30;2.35;;;18.10;99.90;;;;;;4177186;28;20025;-58
2023/07/17 02:20:24;;;;;;;3.65;2.10;;;18.00;99.90;;;;;;4174965;28;21240;-58
2023/07/17 02:22:24;;;;;;;3.30;1.98;;;18.00;99.90;;;;;;4177682;28;20036;-58
2023/07/17 02:24:25;;;;;;;4.47;2.08;;;18.00;99.90;;;;;;4177709;28;20056;-58
2023/07/17 02:26:26;;;;;;;3.13;1.90;;;18.00;99.90;;;;;;4173443;28;20037;-58
2023/07/17 02:28:26;;;;;;;3.80;2.47;;;18.10;99.90;;;;;;4177806;28;20041;-59
2023/07/17 02:30:27;;;;;;;5.03;2.13;;;18.00;99.90;;;;;;4165467;28;20092;-59
2023/07/17 02:32:28;;;;;;;3.28;2.40;;;18.00;99.90;;;;;;4178427;28;20029;-59
2023/07/17 02:34:29;;;;;;;4.72;2.10;;;18.10;99.90;;;;;;4176551;28;20017;-59
2023/07/17 02:36:30;;;;;;;3.35;2.03;;;18.10;99.90;;;;;;4173985;28;20530;-59
2023/07/17 02:38:30;;;;;;;4.00;2.20;;;18.10;99.90;;;;;;4171304;28;20041;-58
2023/07/17 02:40:31;;;;;;;4.60;2.13;;;18.10;99.90;;;;;;4175501;28;20032;-58
2023/07/17 02:42:32;;;;;;;3.88;1.95;;;18.20;99.90;;;;;;4177585;28;20033;-59
2023/07/17 02:44:32;;;;;;;4.35;1.98;;;18.20;99.90;;;;;;4174965;28;20029;-58
2023/07/17 02:46:34;;;;;;;3.40;2.13;;;18.30;99.90;;;;;;4171129;28;20036;-58
2023/07/17 02:48:34;;;;;;;2.42;1.77;;;18.30;99.90;;;;;;4177374;28;20064;-58
2023/07/17 02:50:35;;;;;;;3.15;2.00;;;18.30;99.90;;;;;;4176313;28;20492;-58
2023/07/17 02:52:36;;;;;;;5.20;2.20;;;18.30;99.90;;;;;;4177009;28;20384;-59
2023/07/17 02:54:37;;;;;;;3.35;2.00;;;18.30;99.90;;;;;;4172029;28;20291;-59
2023/07/17 02:56:37;;;;;;;5.05;2.42;;;18.30;99.90;;;;;;4170686;28;20037;-59
2023/07/17 02:58:48;;;;;;;5.57;2.85;;;18.30;99.90;;;;;;4168140;28;20036;-59
2023/07/17 03:00:49;;;;;;;5.30;2.53;;;18.30;99.90;;;;;;4168040;28;20560;-58
2023/07/17 03:02:49;;;;;;;5.05;2.22;;;18.20;99.90;;;;;;4171405;28;20029;-59
2023/07/17 03:04:50;;;;;;;3.40;2.30;;;18.20;99.90;;;;;;4170906;28;20037;-59
2023/07/17 03:06:51;;;;;;;6.80;2.50;;;18.20;99.90;;;;;;4174306;28;20498;-59
2023/07/17 03:08:51;;;;;;;3.08;1.92;;;18.20;99.90;;;;;;4176880;28;20104;-59
2023/07/17 03:10:52;;;;;;;3.75;2.22;;;18.10;99.90;;;;;;4176353;28;20044;-58
2023/07/17 03:12:53;;;;;;;3.92;2.35;;;18.10;99.90;;;;;;4175996;28;20025;-59
2023/07/17 03:14:53;;;;;;;4.80;2.25;;;18.10;99.90;;;;;;4172470;28;20392;-58
2023/07/17 03:16:54;;;;;;;3.55;2.30;;;18.10;99.90;;;;;;4171526;28;20033;-58
2023/07/17 03:18:54;;;;;;;4.43;2.38;;;18.10;99.90;;;;;;4177481;28;20571;-58
2023/07/17 03:20:55;;;;;;;6.38;2.58;;;18.00;99.90;;;;;;4176507;28;20025;-59
2023/07/17 03:22:55;;;;;;;4.85;2.58;;;18.00;99.90;;;;;;4178193;28;20079;-58
2023/07/17 03:24:56;;;;;;;4.03;2.42;;;18.00;99.90;;;;;;4175812;28;20109;-58
2023/07/17 03:26:58;;;;;;;4.65;2.38;;;18.00;99.90;;;;;;4174114;28;20041;-58
2023/07/17 03:28:59;;;;;;;3.42;1.98;;;17.90;99.90;;;;;;4175494;28;20063;-58
2023/07/17 03:31:00;;;;;;;4.90;2.40;;;18.00;99.90;;;;;;4169126;28;20041;-59
2023/07/17 03:33:00;;;;;;;2.97;2.05;;;18.00;99.90;;;;;;4177621;28;20033;-58
2023/07/17 03:35:01;;;;;;;3.20;2.00;;;18.00;99.90;;;;;;4174460;28;20040;-59
2023/07/17 03:37:02;;;;;;;4.63;2.15;;;17.90;99.90;;;;;;4176023;28;20033;-58
2023/07/17 03:39:05;;;;;;;3.78;2.30;;;17.90;99.90;;;;;;4176470;28;20155;-58
2023/07/17 03:41:05;;;;;;;4.65;2.20;;;17.90;99.90;;;;;;4171568;28;20056;-59
2023/07/17 03:43:06;;;;;;;5.72;2.42;;;17.90;99.90;;;;;;4169001;28;20053;-58
2023/07/17 03:45:07;;;;;;;4.07;2.70;;;17.90;99.90;;;;;;4174669;28;20495;-59
2023/07/17 03:47:08;;;;;;;4.22;2.33;;;17.90;99.90;;;;;;4171682;28;20029;-59
2023/07/17 03:49:08;;;;;;;6.55;2.35;;;17.90;99.90;;;;;;4175340;28;20035;-59
2023/07/17 03:51:09;;;;;;;3.38;2.25;;;17.80;99.90;;;;;;4174416;28;20132;-59
2023/07/17 03:53:10;;;;;;;2.88;1.90;;;17.90;99.90;;;;;;4176646;28;20035;-58
2023/07/17 03:55:10;;;;;;;3.95;2.10;;;17.80;99.90;;;;;;4157054;28;20105;-59
2023/07/17 03:57:11;;;;;;;3.60;2.10;;;17.90;99.90;;;;;;4175405;28;20086;-58
2023/07/17 03:59:11;;;;;;;5.15;2.03;;;17.90;99.90;;;;;;4176181;28;20036;-59
2023/07/17 04:01:12;;;;;;;3.38;2.28;;;17.90;99.90;;;;;;4173029;28;20061;-58
2023/07/17 04:03:13;;;;;;;5.10;2.17;;;17.90;99.90;;;;;;4176891;28;20384;-62
2023/07/17 04:05:13;;;;;;;2.90;2.03;;;17.90;99.90;;;;;;4174416;28;20079;-59
2023/07/17 04:07:14;;;;;;;4.10;2.22;;;17.90;99.90;;;;;;4174677;28;20468;-59
2023/07/17 04:09:15;;;;;;;6.38;2.25;;;17.90;99.90;;;;;;4176572;28;20036;-58
2023/07/17 04:11:15;;;;;;;3.45;2.08;;;17.90;99.90;;;;;;4171384;28;20037;-58
2023/07/17 04:13:16;;;;;;;3.50;2.55;;;17.90;99.90;;;;;;4172857;28;20033;-58
2023/07/17 04:15:17;;;;;;;5.97;2.75;;;17.90;99.90;;;;;;4172861;28;20033;-58
2023/07/17 04:17:18;;;;;;;4.35;2.35;;;17.90;99.90;;;;;;4175884;28;20037;-58
2023/07/17 04:19:19;;;;;;;4.22;2.50;;;17.80;99.90;;;;;;4175708;28;20074;-58
2023/07/17 04:21:20;;;;;;;4.25;2.33;;;17.80;99.90;;;;;;4176499;28;20041;-58
2023/07/17 04:23:21;;;;;;;7.80;2.50;;;17.80;99.90;;;;;;4175986;28;20029;-58
2023/07/17 04:25:21;;;;;;;18.75;2.55;;;17.80;99.90;;;;;;4174778;28;20450;-59
2023/07/17 04:27:22;;;;;;;6.43;2.38;;;17.80;99.90;;;;;;4174534;28;20121;-58
2023/07/17 04:29:23;;;;;;;5.00;2.70;;;17.80;99.90;;;;;;4167148;28;20030;-59
2023/07/17 04:31:23;;;;;;;3.45;2.28;;;17.70;99.90;;;;;;4172764;28;20530;-59
2023/07/17 04:33:24;;;;;;;4.47;2.20;;;17.80;99.90;;;;;;4173500;28;20029;-58
2023/07/17 04:35:24;;;;;;;5.18;2.42;;;17.80;99.90;;;;;;4175059;28;20110;-59
2023/07/17 04:37:25;;;;;;;4.22;2.20;;;17.80;99.90;;;;;;4174257;28;20032;-58
2023/07/17 04:39:25;;;;;;;5.18;2.38;;;17.80;99.90;;;;;;4175956;28;20112;-58
2023/07/17 04:41:26;;;;;;;6.25;3.30;;;17.80;99.90;;;;;;4176395;28;20033;-61
2023/07/17 04:43:27;;;;;;;3.78;2.15;;;17.70;99.90;;;;;;4176075;28;20064;-61
2023/07/17 04:45:28;;;;;;;4.57;2.50;;;17.70;99.90;;;;;;4168498;28;20500;-60
2023/07/17 04:47:28;;;;;;;3.63;2.25;;;17.70;99.90;;;;;;4175000;28;20550;-60
2023/07/17 04:49:29;;;;;;;4.70;2.70;;;17.70;99.90;;;;;;4169801;28;20038;-60
2023/07/17 04:51:30;;;;;;;4.35;2.40;;;17.80;99.90;;;;;;4172517;28;20112;-60
2023/07/17 04:53:31;;;;;;;4.78;2.47;;;17.70;99.90;;;;;;4176040;28;20044;-60
2023/07/17 04:55:31;;;;;;;7.55;2.90;;;17.70;99.90;;;;;;4170854;28;20029;-60
2023/07/17 04:57:32;;;;;;;4.47;2.33;;;17.70;99.90;;;;;;4172088;28;20041;-60
2023/07/17 04:59:33;;;;;;;4.68;2.72;;;17.60;99.90;;;;;;4172280;28;20033;-60
2023/07/17 05:01:33;;;;;;;5.30;2.70;;;17.60;99.90;;;;;;4166026;28;20124;-60
2023/07/17 05:03:36;;;;;;;5.00;2.65;;;17.70;99.90;;;;;;4174382;28;20473;-60
2023/07/17 05:05:36;;;;;;;;;;;17.60;99.90;;;;;;4149379;28;20033;-60
2023/07/17 05:07:40;;;;;;;3.92;2.13;;;17.70;99.90;;;;;;4174485;28;19917;-60
2023/07/17 05:09:41;;;;;;;6.20;2.28;;;17.70;99.90;;;;;;4171933;28;20025;-61
2023/07/17 05:11:42;;;;;;;8.07;2.72;;;17.70;99.90;;;;;;4168234;28;20451;-61
2023/07/17 05:13:43;;;;;;;3.47;2.17;;;17.70;99.90;;;;;;4171907;28;20029;-60
2023/07/17 05:15:44;;;;;;;4.78;2.58;;;17.70;99.90;;;;;;4166416;28;20040;-61
2023/07/17 05:17:44;;;;;;;6.45;2.30;;;17.80;99.90;;;;;;4171286;28;20076;-65
2023/07/17 05:19:45;;;;;;;5.15;2.28;;;17.90;99.90;;;;;;4172462;28;20029;-61
2023/07/17 05:21:45;;;;;;;7.03;2.97;;;17.80;99.90;;;;;;4162232;28;20139;-61
2023/07/17 05:23:46;;;;;;;6.35;2.80;;;17.80;99.90;;;;;;4170261;28;20032;-61
2023/07/17 05:25:54;;;;;;;6.88;2.72;;;17.80;99.90;;;;;;4170193;28;20033;-61
2023/07/17 05:27:54;;;;;;;7.93;2.60;;;17.80;99.90;;;;;;4174141;28;20037;-61
2023/07/17 05:29:55;;;;;;;6.65;2.47;;;17.70;99.90;;;;;;4171709;28;20033;-60
2023/07/17 05:31:56;;;;;;;6.88;2.83;;;17.80;99.90;;;;;;4170344;28;20085;-60
2023/07/17 05:33:56;;;;;;;6.45;3.08;;;17.90;99.90;;;;;;4174896;28;20033;-60
2023/07/17 05:35:57;;;;;;;6.32;2.90;;;17.90;99.90;;;;;;4152028;28;20521;-60
2023/07/17 05:37:57;;;;;;;5.32;2.88;;;17.90;99.90;;;;;;4171994;28;20048;-60
2023/07/17 05:39:58;;;;;;;8.23;3.15;;;18.00;99.90;;;;;;4147576;28;20095;-60
2023/07/17 05:42:00;;;;;;;12.60;3.03;;;18.00;99.90;;;;;;4167452;28;20037;-60
2023/07/17 05:44:01;;;;;;;5.45;2.80;;;18.00;99.90;;;;;;4171344;28;20037;-60
2023/07/17 05:46:02;;;;;;;5.85;2.95;;;18.00;99.90;;;;;;4168957;28;20033;-60
2023/07/17 05:48:02;;;;;;;8.10;3.15;;;18.10;99.90;;;;;;4174162;28;20032;-60
2023/07/17 05:50:04;;;;;;;8.68;3.35;;;18.10;99.90;;;;;;4175560;28;20041;-61
2023/07/17 05:52:05;;;;;;;6.50;2.72;;;18.00;99.90;;;;;;4172633;28;20036;-60
2023/07/17 05:54:06;;;;;;;10.15;3.05;;;18.10;99.90;;;;;;4174925;28;20040;-60
2023/07/17 05:56:07;;;;;;;5.68;3.03;;;18.20;99.90;;;;;;4152922;28;20544;-60
2023/07/17 05:58:07;;;;;;;8.48;3.50;;;18.10;99.90;;;;;;4175319;28;20033;-60
2023/07/17 06:00:14;;;;;;;6.30;3.67;;;18.20;99.90;;;;;;4173151;28;20040;-62
2023/07/17 06:02:15;;;;;;;4.47;2.97;;;18.20;99.90;;;;;;4170833;28;20033;-60
2023/07/17 06:04:15;;;;;;;4.70;2.90;;;18.20;99.90;;;;;;4165941;28;20057;-60
2023/07/17 06:06:16;;;;;;;5.88;3.08;;;18.40;99.90;;;;;;4171519;28;20037;-64
2023/07/17 06:08:17;;;;;;;7.32;3.60;;;18.70;99.90;;;;;;4174549;28;20596;-61
2023/07/17 06:10:17;;;;;;;8.23;4.18;;;19.00;99.90;;;;;;4173239;28;20033;-60
2023/07/17 06:12:18;;;;;;;6.20;3.53;;;19.20;99.90;;;;;;4175249;28;20699;-60
2023/07/17 06:14:18;;;;;;;8.90;3.55;;;19.40;99.90;;;;;;4173419;28;20504;-58
2023/07/17 06:16:19;;;;;;;9.00;4.05;;;19.80;99.90;;;;;;4165616;28;20033;-58
2023/07/17 06:18:20;;;;;;;6.78;3.25;;;20.10;99.90;;;;;;4169111;28;20049;-60
2023/07/17 06:20:20;;;;;;;8.55;3.40;;;20.30;99.90;;;;;;4172318;28;20048;-61
2023/07/17 06:22:21;;;;;;;10.75;4.00;;;20.60;99.90;;;;;;4175676;28;20549;-60
2023/07/17 06:24:21;;;;;;;12.02;3.75;;;20.90;99.90;;;;;;4175563;28;20082;-61
2023/07/17 06:26:22;;;;;;;5.20;2.88;;;21.00;99.90;;;;;;4163574;28;20411;-61
2023/07/17 06:28:22;;;;;;;8.27;3.47;;;21.10;99.90;;;;;;4168537;28;20029;-61
2023/07/17 06:30:23;;;;;;;14.45;3.47;;;21.20;99.90;;;;;;4171935;28;20029;-61
2023/07/17 06:32:24;;;;;;;5.07;3.00;;;21.40;99.90;;;;;;4164754;28;20045;-61
2023/07/17 06:34:24;;;;;;;7.05;3.58;;;21.50;99.90;;;;;;4171505;28;20171;-61
2023/07/17 06:36:25;;;;;;;6.90;3.45;;;21.60;99.90;;;;;;4167296;28;20030;-61
2023/07/17 06:38:25;;;;;;;5.07;2.97;;;21.80;99.90;;;;;;4170001;28;20065;-61
2023/07/17 06:40:26;;;;;;;4.68;2.83;;;21.90;99.90;;;;;;4173606;28;20083;-61
2023/07/17 06:42:26;;;;;;;5.10;3.70;;;22.00;99.90;;;;;;4171845;28;20033;-61
2023/07/17 06:44:27;;;;;;;4.88;3.28;;;22.00;99.90;;;;;;4144300;28;20140;-61
2023/07/17 06:46:28;;;;;;;5.40;3.13;;;22.10;99.90;;;;;;4145638;28;20455;-61
2023/07/17 06:48:28;;;;;;;7.30;3.20;;;22.20;99.90;;;;;;4141696;28;20040;-61
2023/07/17 06:50:29;;;;;;;6.10;3.50;;;22.10;99.90;;;;;;4165031;28;20064;-61
2023/07/17 06:52:30;;;;;;;7.28;3.67;;;22.20;99.90;;;;;;4148610;28;20109;-61
2023/07/17 06:54:30;;;;;;;5.47;3.25;;;22.00;99.90;;;;;;4177117;28;20064;-61
2023/07/17 06:56:31;;;;;;;7.53;3.20;;;21.90;99.90;;;;;;4171583;28;20245;-61
2023/07/17 06:58:31;;;;;;;8.07;3.33;;;21.90;99.90;;;;;;4162287;28;20040;-61
2023/07/17 07:00:32;;;;;;;6.90;3.03;;;21.90;99.90;;;;;;4164598;28;20112;-61
2023/07/17 07:02:33;;;;;;;10.65;4.20;;;22.00;99.90;;;;;;4171764;28;20025;-61
2023/07/17 07:04:33;;;;;;;5.68;3.03;;;22.00;99.90;;;;;;4171089;28;20086;-61
2023/07/17 07:06:34;;;;;;;6.22;3.33;;;21.90;99.90;;;;;;4174252;28;20025;-61
2023/07/17 07:08:34;;;;;;;7.63;3.47;;;21.70;99.90;;;;;;4173840;28;20037;-61
2023/07/17 07:10:35;;;;;;;6.53;3.55;;;21.50;99.90;;;;;;4174798;28;20451;-61
2023/07/17 07:12:36;;;;;;;8.23;3.88;;;21.50;99.90;;;;;;4173990;28;20033;-62
2023/07/17 07:14:36;;;;;;;12.43;4.35;;;21.50;99.90;;;;;;4167718;28;20097;-61
2023/07/17 07:16:37;;;;;;;9.05;3.75;;;21.30;99.90;;;;;;4173590;28;20033;-62
2023/07/17 07:18:37;;;;;;;6.15;3.50;;;21.20;99.90;;;;;;4174543;28;20028;-62
2023/07/17 07:20:38;;;;;;;6.53;3.70;;;21.30;99.90;;;;;;4169486;28;20026;-61
2023/07/17 07:22:39;;;;;;;8.02;4.03;;;21.40;99.90;;;;;;4174561;28;20593;-62
2023/07/17 07:24:41;;;;;;;7.65;3.95;;;21.40;99.90;;;;;;4175039;28;20037;-62
2023/07/17 07:26:42;;;;;;;9.13;4.60;;;21.30;99.90;;;;;;4151455;28;20040;-63
2023/07/17 07:28:42;;;;;;;7.18;4.38;;;21.40;99.90;;;;;;4147488;28;20552;-61
2023/07/17 07:30:43;;;;;;;7.43;3.97;;;21.40;99.90;;;;;;4153696;28;20044;-62
2023/07/17 07:32:43;;;;;;;7.55;3.55;;;21.40;99.90;;;;;;4159960;28;20545;-62
2023/07/17 07:34:44;;;;;;;6.40;3.55;;;21.50;99.90;;;;;;4171865;28;20034;-61
2023/07/17 07:36:45;;;;;;;11.43;3.90;;;21.50;99.90;;;;;;4168953;28;20033;-62
2023/07/17 07:38:45;;;;;;;7.45;3.55;;;21.50;99.90;;;;;;4168380;28;20033;-62
2023/07/17 07:40:46;;;;;;;7.90;3.95;;;21.40;99.90;;;;;;4168687;28;20021;-62
2023/07/17 07:42:47;;;;;;;7.10;3.70;;;21.50;99.90;;;;;;4174213;28;20041;-62
2023/07/17 07:44:47;;;;;;;6.40;3.00;;;21.50;99.90;;;;;;4173532;28;20025;-61
2023/07/17 07:46:48;;;;;;;6.07;3.28;;;21.60;99.90;;;;;;4167028;28;20033;-61
2023/07/17 07:48:49;;;;;;;6.05;3.03;;;21.60;99.90;;;;;;4156039;28;20698;-62
2023/07/17 07:50:50;;;;;;;7.63;3.60;;;21.70;99.90;;;;;;4154006;28;20179;-62
2023/07/17 07:52:51;;;;;;;5.85;2.95;;;21.70;99.90;;;;;;4177419;28;20480;-62
2023/07/17 07:54:52;;;;;;;6.78;3.60;;;21.70;99.90;;;;;;4176483;28;20029;-62
2023/07/17 07:56:52;;;;;;;7.43;3.45;;;21.50;99.90;;;;;;4167828;28;20025;-62
2023/07/17 07:58:53;;;;;;;5.38;3.30;;;21.60;99.90;;;;;;4177052;28;20475;-62
2023/07/17 08:00:54;;;;;;;7.03;3.55;;;21.60;99.90;;;;;;4171260;28;20436;-62
2023/07/17 08:02:54;;;;;;;7.00;3.47;;;21.50;99.90;;;;;;4172632;28;20042;-62
2023/07/17 08:04:55;;;;;;;7.47;3.90;;;21.50;99.90;;;;;;4174113;28;20040;-62
2023/07/17 08:06:56;;;;;;;5.03;2.75;;;21.50;99.90;;;;;;4168769;28;20033;-62
2023/07/17 08:08:56;;;;;;;8.15;3.20;;;21.60;99.90;;;;;;4168114;28;20463;-62
2023/07/17 08:10:57;;;;;;;3.90;2.80;;;21.60;99.90;;;;;;4169319;28;20067;-62
2023/07/17 08:12:59;;;;;;;6.18;3.53;;;21.70;99.90;;;;;;4168747;28;20497;-61
2023/07/17 08:15:00;;;;;;;6.85;3.63;;;21.80;99.90;;;;;;4170642;28;20033;-62
2023/07/17 08:17:00;;;;;;;5.82;3.08;;;21.80;99.90;;;;;;4140501;28;20087;-62
2023/07/17 08:19:01;;;;;;;5.35;3.28;;;21.80;99.90;;;;;;4164787;28;20108;-62
2023/07/17 08:21:02;;;;;;;6.25;3.17;;;21.70;99.90;;;;;;4161287;28;20041;-62
2023/07/17 08:23:02;;;;;;;4.93;3.00;;;21.80;99.90;;;;;;4172680;28;20475;-62
2023/07/17 08:25:03;;;;;;;6.22;3.10;;;21.80;99.90;;;;;;4165875;28;20090;-63
2023/07/17 08:27:05;;;;;;;7.35;3.13;;;21.90;99.90;;;;;;4164361;28;20547;-62
2023/07/17 08:29:06;;;;;;;5.88;3.15;;;22.00;99.90;;;;;;4157957;28;20342;-62
2023/07/17 08:31:07;;;;;;;6.30;2.55;;;22.00;99.90;;;;;;4167635;28;20770;-62
2023/07/17 08:33:08;;;;;;;8.45;2.90;;;22.10;99.90;;;;;;4169998;28;20033;-62
2023/07/17 08:35:08;;;;;;;5.30;2.70;;;22.10;99.90;;;;;;4164471;28;20032;-65
2023/07/17 08:37:09;;;;;;;6.70;3.08;;;22.10;99.90;;;;;;4170166;28;20044;-62
2023/07/17 08:39:10;;;;;;;8.32;3.45;;;22.10;99.90;;;;;;4170808;28;20033;-62
2023/07/17 08:41:10;;;;;;;6.95;3.22;;;22.10;99.90;;;;;;4166421;28;20141;-62
2023/07/17 08:43:11;;;;;;;6.32;2.70;;;22.20;99.90;;;;;;4175046;28;21029;-62
2023/07/17 08:45:13;;;;;;;7.35;2.58;;;22.20;99.90;;;;;;4173842;28;20041;-63
2023/07/17 08:47:15;;;;;;;5.15;2.55;;;22.30;99.90;;;;;;4169071;28;20040;-63
2023/07/17 08:49:18;;;;;;;4.97;2.42;;;22.30;99.90;;;;;;4176511;28;20123;-62
2023/07/17 08:51:21;;;;;;;5.05;2.67;;;22.50;99.90;;;;;;4168716;28;20113;-62
2023/07/17 08:53:24;;;;;;;6.20;2.65;;;22.50;99.90;;;;;;4166627;28;20396;-63
2023/07/17 08:55:29;;;;;;;6.60;2.75;;;22.50;99.90;;;;;;4169639;28;20380;-62
2023/07/17 08:57:32;;;;;;;5.38;2.55;;;22.60;99.90;;;;;;4166266;28;20037;-62
2023/07/17 08:59:36;;;;;;;;;;;22.70;99.90;;;;;;4167533;28;20037;-62
2023/07/17 09:01:37;;;;;;;4.45;2.72;;;22.70;99.90;;;;;;4173719;28;20335;-62
2023/07/17 09:03:38;;;;;;;5.95;2.88;;;22.80;99.90;;;;;;4165903;28;20041;-62
2023/07/17 09:05:39;;;;;;;6.05;2.47;;;22.80;99.90;;;;;;4168772;28;20448;-62
2023/07/17 09:07:39;;;;;;;4.25;2.03;;;22.90;99.90;;;;;;4170103;28;20048;-62
2023/07/17 09:09:40;;;;;;;5.05;2.60;;;22.90;99.90;;;;;;4172154;28;20036;-62
2023/07/17 09:11:41;;;;;;;4.07;2.40;;;23.00;99.90;;;;;;4171851;28;20041;-62
2023/07/17 09:13:44;;;;;;;4.05;2.22;;;23.00;99.90;;;;;;4172657;28;20044;-62
2023/07/17 09:15:44;;;;;;;5.78;2.60;;;23.10;99.90;;;;;;4169776;28;20131;-62
2023/07/17 09:17:45;;;;;;;6.55;2.50;;;23.20;99.90;;;;;;4171015;28;20049;-62
2023/07/17 09:19:46;;;;;;;7.45;3.35;;;23.20;99.90;;;;;;4171071;28;20053;-62
2023/07/17 09:21:47;;;;;;;7.75;2.75;;;23.30;99.90;;;;;;4168502;28;20378;-62
2023/07/17 09:23:50;;;;;;;7.50;2.63;;;23.20;98.60;;;;;;4169678;28;20036;-62
2023/07/17 09:25:54;;;;;;;4.22;2.22;;;23.20;98.60;;;;;;4174210;28;20033;-62
2023/07/17 09:27:55;;;;;;;4.75;2.35;;;23.20;98.80;;;;;;4168934;28;20037;-62
2023/07/17 09:29:55;;;;;;;4.50;2.40;;;23.20;99.30;;;;;;4166344;28;20037;-62
2023/07/17 09:31:57;;;;;;;4.32;2.30;;;23.30;99.00;;;;;;4162922;28;20048;-62
2023/07/17 09:34:00;;;;;;;3.20;2.10;;;23.20;98.10;;;;;;4168228;28;20037;-62
2023/07/17 09:36:01;;;;;;;3.97;2.10;;;23.20;99.90;;;;;;4175724;28;20412;-62
2023/07/17 09:38:07;;;;;;;5.95;2.45;;;23.30;99.00;;;;;;4168243;28;20146;-61
2023/07/17 09:40:11;;;;;;;4.05;2.28;;;23.40;98.90;;;;;;4173447;28;20044;-63
2023/07/17 09:42:24;;;;;;;5.30;2.75;;;23.30;97.80;;;;;;4173017;28;20528;-62
2023/07/17 09:44:25;;;;;;;4.95;2.15;;;23.30;97.10;;;;;;4152580;28;20037;-62
2023/07/17 09:46:30;;;;;;;5.13;2.20;;;23.40;96.80;;;;;;4152919;28;20112;-62
2023/07/17 09:48:31;;;;;;;4.50;2.03;;;23.40;96.50;;;;;;4158426;28;20399;-62
2023/07/17 09:50:32;;;;;;;4.32;2.17;;;23.30;97.50;;;;;;4158913;28;20029;-62
2023/07/17 09:52:33;;;;;;;5.53;2.38;;;23.40;97.20;;;;;;4159909;28;20400;-62
2023/07/17 09:54:36;;;;;;;3.58;2.22;;;23.40;97.60;;;;;;4139264;28;20037;-62
2023/07/17 09:56:40;;;;;;;5.20;2.58;;;23.40;97.90;;;;;;4153374;28;20049;-62
2023/07/17 09:58:48;;;;;;;7.43;2.60;;;23.40;96.90;;;;;;4165748;28;20511;-62
2023/07/17 10:00:53;;;;;;;4.43;2.50;;;23.40;99.10;;;;;;4151186;28;20124;-62
2023/07/17 10:03:10;;;;;;;4.57;2.45;;;23.50;97.10;;;;;;4150878;28;20121;-63
2023/07/17 10:05:11;;;;;;;5.13;2.53;;;23.50;98.00;;;;;;4146812;28;20030;-63
2023/07/17 10:07:14;;;;;;;4.35;2.60;;;23.50;95.90;;;;;;4148538;28;20052;-62
2023/07/17 10:09:17;;;;;;;6.53;2.83;;;23.60;96.00;;;;;;4152202;28;20378;-62
2023/07/17 10:11:18;;;;;;;4.82;2.50;;;23.60;96.60;;;;;;4148872;28;20058;-62
2023/07/17 10:13:19;;;;;;;5.05;2.50;;;23.70;95.90;;;;;;4137298;28;20444;-62
2023/07/17 10:15:21;;;;;;;4.97;2.50;;;23.80;96.60;;;;;;4138692;28;20067;-63
2023/07/17 10:17:32;;;;;;;4.50;2.60;;;23.80;96.50;;;;;;4151582;28;20546;-62
2023/07/17 10:19:44;;;;;;;5.50;2.50;;;23.90;96.30;;;;;;4147302;28;20041;-62
2023/07/17 10:21:57;;;;;;;5.95;2.80;;;24.00;96.00;;;;;;4139506;28;20042;-62
2023/07/17 10:24:02;;;;;;;6.55;2.78;;;24.00;94.50;;;;;;4140844;28;20042;-62
2023/07/17 10:26:36;;;;;;;5.45;2.55;;;23.80;94.50;;;;;;4136768;28;20130;-62
2023/07/17 10:28:37;;;;;;;;;;;23.90;94.50;;;;;;4103224;28;20041;-62
2023/07/17 10:30:37;;;;;;;4.47;2.33;;;23.90;94.80;;;;;;4155651;28;19913;-62
2023/07/17 10:32:40;;;;;;;5.18;2.70;;;23.80;93.90;;;;;;4153631;28;20113;-62